バンギ の空港の天気 - METARとTAF

バンギ・ムポコ国際空港 ( FEFF / BGF ) - 中央アフリカ バンギ
飛行場実況気象(Metar)
観測時間11/30 14:00 WAT (11/30 13:00 UTC)
風向・風速南南西 4m/s
視程8000m
天気現象
全天の4割程度の雲 雲底高度 610m
気温30℃
湿度55%
気圧1009hPa
METARFEFF 301300Z 20008KT 8000 SCT020 30/20 Q1009 NOSIG
過去の天気等 Google飛行場航空写真 Wunderground天気予報

過去48時間のMETAR

飛行場予報(TAF)
発表時間: 11/30 12:00 WAT (11/30 11:00 UTC)
予報対象時間: 30日13時 WAT ~ 1日19時 WAT
風向・風速不定 2m/s
視程7000m
なし
30日17時 WAT ~ 30日20時 WAT に一時的に
視程3000m
天気現象煙霧煙
1日6時 WAT ~ 1日9時 WAT に一時的に
視程3000m
天気現象もや
1日10時 WAT ~ 1日12時 WAT に徐々に
風向・風速東 8m/s
全天の8割程度の雲 雲底高度 430m
1日13時 WAT ~ 1日17時 WAT に 確率 30% で一時的に
視程4000m
天気現象雷雨
全天の8割程度の雲 雲底高度 430m
少しの積乱雲 雲底高度 1010m
TAF FEFF 301100Z 3012/0118 VRB03KT 7000 NSC
TEMPO 3016/3019 3000 HZFU
TEMPO 0105/0108 3000 BR
BECMG 0109/0111 08015KT BKN014
PROB30 TEMPO 0112/0116 4000 TSRA BKN014 FEW033CB